Time;durP1;ratioP1;P1;durP2;ratioP2;P2;SDS_P1;SDS_P2;PMS_P1;PMS_P2;Temp;Humidity;BMP_temperature;BMP_pressure;BME280_temperature;BME280_humidity;BME280_pressure;Samples;Min_cycle;Max_cycle;Signal;HPM_P1;HPM_P2
2023/10/29 00:02:05;;;;;;;0.25;0.25;;;;;;;9.98;82.85;96257.84;5035686;28;20053;-71
2023/10/29 00:04:35;;;;;;;0.40;0.40;;;;;;;10.02;82.57;96260.88;5042678;28;20545;-71
2023/10/29 00:07:03;;;;;;;0.50;0.50;;;;;;;10.00;82.61;96257.63;5048035;28;20128;-71
2023/10/29 00:09:31;;;;;;;0.30;0.30;;;;;;;9.99;82.59;96256.00;5040526;28;20516;-71
2023/10/29 00:11:59;;;;;;;0.30;0.30;;;;;;;10.00;82.64;96257.63;5041263;28;20280;-71
2023/10/29 00:14:28;;;;;;;0.45;0.45;;;;;;;10.01;82.54;96253.94;5037293;28;20037;-72
2023/10/29 00:16:58;;;;;;;0.70;0.70;;;;;;;10.00;82.45;96253.13;5041356;28;22339;-72
2023/10/29 00:19:25;;;;;;;0.32;0.32;;;;;;;10.03;82.61;96257.19;5045615;28;20056;-71
2023/10/29 00:21:53;;;;;;;0.38;0.30;;;;;;;10.03;82.43;96257.19;5043409;28;20103;-72
2023/10/29 00:24:22;;;;;;;0.50;0.50;;;;;;;10.02;82.74;96250.22;5023273;28;20045;-71
2023/10/29 00:26:50;;;;;;;0.40;0.40;;;;;;;10.02;82.59;96259.03;5043997;28;20049;-71
2023/10/29 00:29:18;;;;;;;0.43;0.43;;;;;;;10.02;82.42;96260.88;5048154;28;20049;-71
2023/10/29 00:31:47;;;;;;;0.60;0.60;;;;;;;10.04;82.30;96248.16;5045581;28;20484;-71
2023/10/29 00:34:14;;;;;;;0.57;0.45;;;;;;;10.05;82.35;96249.78;5028568;28;20051;-70
2023/10/29 00:36:42;;;;;;;0.25;0.25;;;;;;;10.07;82.26;96253.84;5028476;28;20067;-70
2023/10/29 00:39:10;;;;;;;0.30;0.30;;;;;;;10.07;82.36;96245.84;5040502;28;20037;-70
2023/10/29 00:41:37;;;;;;;0.30;0.30;;;;;;;10.06;82.21;96252.25;5042270;28;20096;-71
2023/10/29 00:44:05;;;;;;;0.68;0.68;;;;;;;10.03;82.33;96252.69;5043628;28;20432;-70
2023/10/29 00:46:34;;;;;;;0.32;0.30;;;;;;;10.07;82.71;96255.72;5045765;28;20060;-72
2023/10/29 00:49:04;;;;;;;0.30;0.30;;;;;;;10.08;82.67;96247.47;5049558;28;20499;-70
2023/10/29 00:51:32;;;;;;;0.40;0.40;;;;;;;10.10;82.57;96245.41;5054117;28;20041;-73
2023/10/29 00:54:00;;;;;;;0.20;0.20;;;;;;;10.11;82.46;96243.53;5053829;28;20037;-72
2023/10/29 00:56:29;;;;;;;0.30;0.30;;;;;;;10.11;82.40;96251.53;5053654;28;20114;-70
2023/10/29 00:58:57;;;;;;;0.40;0.40;;;;;;;10.10;82.54;96242.72;5049926;28;20057;-71
2023/10/29 01:01:25;;;;;;;0.30;0.30;;;;;;;10.12;82.59;96243.34;5045760;28;20045;-69
2023/10/29 01:03:53;;;;;;;0.32;0.32;;;;;;;10.15;82.60;96244.75;5042133;28;20124;-71
2023/10/29 01:06:22;;;;;;;0.30;0.30;;;;;;;10.17;82.57;96250.66;5044288;28;20531;-71
2023/10/29 01:08:50;;;;;;;0.35;0.35;;;;;;;10.19;82.61;96253.94;5031112;28;20053;-72
2023/10/29 01:11:18;;;;;;;0.40;0.40;;;;;;;10.19;82.50;96249.41;5050232;28;20053;-69
2023/10/29 01:13:45;;;;;;;0.40;0.40;;;;;;;10.22;82.28;96251.63;5044246;28;20037;-69
2023/10/29 01:16:13;;;;;;;0.30;0.30;;;;;;;10.24;82.35;96254.91;5026024;28;20519;-69
2023/10/29 01:18:41;;;;;;;0.32;0.32;;;;;;;10.27;81.82;96250.97;5040594;28;20046;-71
2023/10/29 01:21:09;;;;;;;0.38;0.38;;;;;;;10.30;81.84;96247.84;5031478;28;20088;-71
2023/10/29 01:23:39;;;;;;;0.38;0.30;;;;;;;10.33;81.53;96241.25;5051849;28;20060;-70
2023/10/29 01:26:07;;;;;;;0.30;0.30;;;;;;;10.36;81.36;96230.13;5047451;28;20049;-70
2023/10/29 01:28:35;;;;;;;0.43;0.43;;;;;;;10.40;80.72;96237.44;5043366;28;20170;-71
2023/10/29 01:31:02;;;;;;;0.30;0.30;;;;;;;10.47;80.08;96245.34;5053364;28;20111;-69
2023/10/29 01:33:30;;;;;;;0.28;0.28;;;;;;;10.49;79.80;96238.72;5058088;28;20041;-72
2023/10/29 01:35:58;;;;;;;0.40;0.40;;;;;;;10.50;79.77;96240.38;5049566;28;20049;-72
2023/10/29 01:38:26;;;;;;;0.50;0.50;;;;;;;10.55;79.56;96242.38;5046113;28;20121;-70
2023/10/29 01:40:56;;;;;;;0.32;0.32;;;;;;;10.56;79.17;96227.97;5025222;28;20049;-69
2023/10/29 01:43:24;;;;;;;0.20;0.20;;;;;;;10.54;78.86;96225.53;5044648;28;20069;-70
2023/10/29 01:45:52;;;;;;;0.73;0.73;;;;;;;10.60;78.18;96231.81;5047014;28;20421;-69
2023/10/29 01:48:21;;;;;;;0.52;0.52;;;;;;;10.61;77.54;96225.44;5041369;28;20041;-69
2023/10/29 01:50:50;;;;;;;0.30;0.30;;;;;;;10.65;77.66;96223.94;5042331;28;20040;-71
2023/10/29 01:53:19;;;;;;;0.40;0.40;;;;;;;10.65;77.19;96216.75;5050623;28;20051;-71
2023/10/29 01:55:47;;;;;;;0.30;0.30;;;;;;;10.67;77.00;96216.53;5039013;28;20069;-71
2023/10/29 01:58:16;;;;;;;0.32;0.32;;;;;;;10.68;76.96;96212.81;5022478;28;20055;-72
2023/10/29 02:00:44;;;;;;;0.63;0.63;;;;;;;10.71;76.36;96211.53;5031320;28;20535;-72
2023/10/29 02:03:12;;;;;;;0.22;0.22;;;;;;;10.78;75.26;96218.41;5025874;28;20140;-72
2023/10/29 02:05:40;;;;;;;0.30;0.30;;;;;;;10.78;75.42;96214.91;5047287;28;20041;-71
2023/10/29 02:08:08;;;;;;;0.30;0.30;;;;;;;10.81;74.89;96217.09;5033653;28;20072;-72
2023/10/29 02:10:35;;;;;;;0.30;0.30;;;;;;;10.81;74.99;96223.25;5031112;28;20568;-71
2023/10/29 02:13:03;;;;;;;0.38;0.38;;;;;;;10.80;75.26;96218.97;5030259;28;20567;-70
2023/10/29 02:15:32;;;;;;;0.28;0.28;;;;;;;10.80;75.05;96212.81;5025431;28;20145;-75
2023/10/29 02:18:00;;;;;;;0.20;0.20;;;;;;;10.77;75.15;96213.28;5027149;28;20044;-72
2023/10/29 02:20:28;;;;;;;0.40;0.40;;;;;;;10.76;75.20;96217.00;5031688;28;20106;-71
2023/10/29 02:22:57;;;;;;;0.38;0.38;;;;;;;10.70;75.49;96202.69;5031166;28;20053;-71
2023/10/29 02:25:25;;;;;;;0.30;0.30;;;;;;;10.69;75.62;96206.44;5029943;28;20069;-71
2023/10/29 02:27:52;;;;;;;0.30;0.30;;;;;;;10.64;76.16;96192.97;5046251;28;20052;-72
2023/10/29 02:30:20;;;;;;;0.20;0.20;;;;;;;10.59;76.32;96196.31;5048293;28;20049;-71
2023/10/29 02:32:49;;;;;;;0.30;0.30;;;;;;;10.57;76.52;96203.75;5038717;28;20050;-71
2023/10/29 02:35:17;;;;;;;0.35;0.35;;;;;;;10.54;76.74;96206.88;5043646;28;20435;-71
2023/10/29 02:37:45;;;;;;;0.50;0.50;;;;;;;10.51;77.36;96201.97;5040767;28;20041;-71
2023/10/29 02:40:15;;;;;;;0.32;0.32;;;;;;;10.49;77.71;96209.38;5046857;28;20090;-71
2023/10/29 02:42:42;;;;;;;0.65;0.65;;;;;;;10.46;77.86;96212.53;5039415;28;20413;-71
2023/10/29 02:45:10;;;;;;;0.30;0.30;;;;;;;10.46;77.68;96214.38;5020418;28;20046;-72
2023/10/29 02:47:38;;;;;;;0.47;0.40;;;;;;;10.44;78.15;96211.13;5035638;28;20055;-69
2023/10/29 02:50:06;;;;;;;0.20;0.20;;;;;;;10.44;77.96;96195.13;5024826;28;20094;-70
2023/10/29 02:52:34;;;;;;;0.40;0.40;;;;;;;10.44;77.99;96203.94;5042875;28;20049;-69
2023/10/29 02:55:04;;;;;;;0.47;0.47;;;;;;;10.46;77.72;96201.88;5027632;28;20069;-71
2023/10/29 02:57:33;;;;;;;0.30;0.30;;;;;;;10.48;77.57;96199.78;5033704;28;20512;-71
2023/10/29 03:00:01;;;;;;;0.35;0.35;;;;;;;10.49;77.48;96193.38;5040188;28;20043;-71
2023/10/29 03:02:28;;;;;;;0.30;0.30;;;;;;;10.50;77.49;96197.69;5021954;28;20045;-71
2023/10/29 03:04:56;;;;;;;0.30;0.30;;;;;;;10.54;76.94;96195.38;5040000;28;20489;-71
2023/10/29 03:07:24;;;;;;;0.40;0.40;;;;;;;10.54;76.87;96192.72;5022168;28;20044;-71
2023/10/29 03:09:52;;;;;;;0.30;0.30;;;;;;;10.53;76.89;96188.41;5019619;28;20049;-71
2023/10/29 03:12:19;;;;;;;0.25;0.25;;;;;;;10.54;77.04;96209.53;5024348;28;20053;-71
2023/10/29 03:14:48;;;;;;;0.20;0.20;;;;;;;10.55;77.12;96203.16;5028598;28;20037;-71
2023/10/29 03:17:16;;;;;;;0.30;0.30;;;;;;;10.55;76.70;96195.16;5039286;28;20483;-71
2023/10/29 03:19:44;;;;;;;0.20;0.20;;;;;;;10.50;76.95;96192.34;5038427;28;20055;-69
2023/10/29 03:22:12;;;;;;;0.22;0.22;;;;;;;10.49;76.90;96198.72;5028707;28;20473;-70
2023/10/29 03:24:41;;;;;;;1.15;0.40;;;;;;;10.48;76.79;96191.78;5052691;28;20104;-70
2023/10/29 03:27:08;;;;;;;0.40;0.40;;;;;;;10.46;77.04;96195.72;5045803;28;20099;-69
2023/10/29 03:29:36;;;;;;;0.40;0.40;;;;;;;10.45;76.74;96184.22;5040875;28;20048;-70
2023/10/29 03:32:06;;;;;;;0.30;0.30;;;;;;;10.46;76.56;96180.53;5043071;28;20068;-69
2023/10/29 03:34:33;;;;;;;0.20;0.20;;;;;;;10.44;76.81;96176.44;5042526;28;20059;-71
2023/10/29 03:37:01;;;;;;;0.30;0.30;;;;;;;10.42;76.77;96175.88;5028730;28;20401;-69
2023/10/29 03:39:29;;;;;;;0.22;0.22;;;;;;;10.43;76.70;96169.50;5037307;28;20413;-69
2023/10/29 03:41:57;;;;;;;0.38;0.38;;;;;;;10.44;76.94;96168.44;5036674;28;20107;-69
2023/10/29 03:44:25;;;;;;;0.35;0.32;;;;;;;10.45;76.91;96165.56;5035650;28;20046;-68
2023/10/29 03:46:53;;;;;;;0.40;0.40;;;;;;;10.47;77.16;96171.47;5037429;28;20049;-69
2023/10/29 03:49:22;;;;;;;0.28;0.28;;;;;;;10.48;76.17;96172.31;5032087;28;20041;-71
2023/10/29 03:51:49;;;;;;;0.30;0.30;;;;;;;10.48;76.35;96172.31;5025419;28;20076;-69
2023/10/29 03:54:18;;;;;;;0.32;0.32;;;;;;;10.51;76.33;96175.31;5019537;28;20501;-69
2023/10/29 03:56:46;;;;;;;0.30;0.30;;;;;;;10.50;75.81;96173.66;5040573;28;20124;-71
2023/10/29 03:59:13;;;;;;;0.30;0.30;;;;;;;10.50;76.08;96171.00;5038739;28;20599;-69
2023/10/29 04:01:41;;;;;;;0.20;0.20;;;;;;;10.52;76.06;96168.13;5036158;28;20052;-71
2023/10/29 04:04:09;;;;;;;0.70;0.70;;;;;;;10.53;76.03;96167.88;5041275;28;20421;-71
2023/10/29 04:06:38;;;;;;;0.30;0.30;;;;;;;10.60;75.13;96165.09;5045398;28;20126;-71
2023/10/29 04:09:05;;;;;;;0.30;0.30;;;;;;;10.59;75.14;96164.28;5024233;28;20038;-71
2023/10/29 04:11:33;;;;;;;0.68;0.68;;;;;;;10.58;75.36;96170.69;5024640;28;20047;-71
2023/10/29 04:14:01;;;;;;;0.40;0.40;;;;;;;10.56;75.22;96164.78;5028690;28;20045;-71
2023/10/29 04:16:29;;;;;;;0.30;0.30;;;;;;;10.59;74.99;96164.28;5043469;28;20075;-71
2023/10/29 04:18:57;;;;;;;0.30;0.30;;;;;;;10.55;75.53;96167.66;5044255;28;20037;-70
2023/10/29 04:21:24;;;;;;;0.45;0.35;;;;;;;10.55;75.42;96168.47;5042254;28;20124;-71
2023/10/29 04:23:54;;;;;;;0.20;0.20;;;;;;;10.55;74.71;96154.31;5040790;28;20131;-71
2023/10/29 04:26:21;;;;;;;0.40;0.40;;;;;;;10.55;74.91;96146.31;5041313;28;20029;-71
2023/10/29 04:28:49;;;;;;;0.38;0.32;;;;;;;10.54;74.86;96150.84;5043003;28;20048;-71
2023/10/29 04:31:16;;;;;;;0.30;0.30;;;;;;;10.54;74.82;96148.19;5042689;28;20046;-71
2023/10/29 04:33:48;;;;;;;0.25;0.25;;;;;;;10.59;73.97;96137.59;5046484;28;20048;-71
2023/10/29 04:36:20;;;;;;;0.30;0.30;;;;;;;10.65;73.66;96123.38;5051118;28;20063;-71
2023/10/29 04:38:47;;;;;;;0.30;0.30;;;;;;;10.67;73.36;96120.47;5039679;28;20033;-71
2023/10/29 04:41:17;;;;;;;0.22;0.20;;;;;;;10.71;72.90;96128.81;5045779;28;20049;-71
2023/10/29 04:43:44;;;;;;;0.40;0.40;;;;;;;10.74;72.83;96131.00;5042454;28;20041;-70
2023/10/29 04:46:12;;;;;;;0.30;0.30;;;;;;;10.76;72.62;96135.09;5046456;28;20037;-71
2023/10/29 04:48:41;;;;;;;0.38;0.38;;;;;;;10.85;72.25;96130.22;5051364;28;20045;-70
2023/10/29 04:51:09;;;;;;;0.40;0.40;;;;;;;10.88;71.86;96132.41;5047297;28;20033;-70
2023/10/29 04:53:38;;;;;;;0.30;0.30;;;;;;;10.89;71.64;96126.84;5042796;28;20042;-70
2023/10/29 04:56:06;;;;;;;0.60;0.60;;;;;;;10.88;71.82;96121.75;5042518;28;20500;-71
2023/10/29 04:58:37;;;;;;;0.35;0.30;;;;;;;10.87;71.88;96118.25;5036928;28;20045;-69
2023/10/29 05:01:04;;;;;;;0.25;0.25;;;;;;;10.92;71.64;96117.53;5044107;28;20075;-71
2023/10/29 05:03:32;;;;;;;0.30;0.30;;;;;;;10.91;71.76;96111.41;5040095;28;20091;-69
2023/10/29 05:06:00;;;;;;;0.30;0.30;;;;;;;10.91;71.59;96094.56;5045037;28;20080;-69
2023/10/29 05:08:27;;;;;;;0.30;0.30;;;;;;;10.91;71.11;96092.72;5049808;28;20115;-69
2023/10/29 05:10:55;;;;;;;0.40;0.40;;;;;;;10.87;71.36;96078.22;5042006;28;20368;-72
2023/10/29 05:13:23;;;;;;;0.20;0.20;;;;;;;10.84;71.56;96076.00;5045585;28;20045;-72
2023/10/29 05:15:52;;;;;;;0.20;0.20;;;;;;;10.82;71.75;96075.44;5043864;28;20045;-72
2023/10/29 05:18:19;;;;;;;0.30;0.30;;;;;;;10.80;71.81;96079.38;5045449;28;20124;-72
2023/10/29 05:20:47;;;;;;;0.32;0.30;;;;;;;10.77;71.82;96080.66;5038082;28;20512;-72
2023/10/29 05:23:15;;;;;;;0.50;0.50;;;;;;;10.73;71.76;96079.50;5035211;28;20471;-70
2023/10/29 05:25:44;;;;;;;0.30;0.30;;;;;;;10.75;71.48;96087.28;5043513;28;20048;-70
2023/10/29 05:28:12;;;;;;;0.55;0.55;;;;;;;10.73;71.54;96070.69;5046224;28;20124;-70
2023/10/29 05:30:39;;;;;;;0.25;0.25;;;;;;;10.71;71.43;96062.91;5044764;28;20033;-71
2023/10/29 05:33:09;;;;;;;0.30;0.30;;;;;;;10.71;71.35;96070.91;5038228;28;20091;-71
2023/10/29 05:35:36;;;;;;;0.40;0.40;;;;;;;10.70;71.11;96063.13;5046538;28;20040;-71
2023/10/29 05:38:05;;;;;;;0.30;0.30;;;;;;;10.68;71.08;96060.72;5039339;28;20059;-71
2023/10/29 05:40:32;;;;;;;0.40;0.40;;;;;;;10.64;71.33;96071.03;5049939;28;20102;-70
2023/10/29 05:43:00;;;;;;;0.30;0.30;;;;;;;10.64;71.37;96068.38;5046893;28;20445;-70
2023/10/29 05:45:28;;;;;;;0.30;0.30;;;;;;;10.62;71.33;96065.13;5047868;28;20134;-70
2023/10/29 05:47:56;;;;;;;0.20;0.20;;;;;;;10.60;71.20;96064.53;5049899;28;20096;-69
2023/10/29 05:50:26;;;;;;;0.38;0.30;;;;;;;10.61;70.97;96066.16;5051788;28;20396;-69
2023/10/29 05:52:53;;;;;;;0.30;0.30;;;;;;;10.62;71.00;96066.97;5051025;28;20059;-69
2023/10/29 05:55:22;;;;;;;0.20;0.20;;;;;;;10.61;71.17;96065.34;5050188;28;20041;-71
2023/10/29 05:57:50;;;;;;;1.13;0.50;;;;;;;10.60;71.05;96069.06;5054601;28;20103;-71
2023/10/29 06:00:18;;;;;;;0.35;0.35;;;;;;;10.57;71.30;96064.22;5054538;28;20496;-71
2023/10/29 06:02:46;;;;;;;0.30;0.30;;;;;;;10.57;71.21;96064.22;5044719;28;20499;-71
2023/10/29 06:05:14;;;;;;;0.75;0.75;;;;;;;10.59;71.12;96068.25;5048509;28;20400;-71
2023/10/29 06:07:44;;;;;;;0.30;0.30;;;;;;;10.58;71.12;96073.84;5046289;28;20041;-70
2023/10/29 06:10:13;;;;;;;0.30;0.28;;;;;;;10.56;70.74;96066.06;5047217;28;20043;-71
2023/10/29 06:12:41;;;;;;;0.22;0.22;;;;;;;10.57;71.04;96067.69;5043480;28;20084;-71
2023/10/29 06:15:11;;;;;;;0.55;0.55;;;;;;;10.54;71.33;96065.47;5045319;28;20404;-71
2023/10/29 06:17:39;;;;;;;0.30;0.30;;;;;;;10.49;71.60;96070.69;5051239;28;20094;-71
2023/10/29 06:20:08;;;;;;;0.20;0.20;;;;;;;10.46;71.94;96070.34;5048928;28;20560;-71
2023/10/29 06:22:36;;;;;;;0.50;0.50;;;;;;;10.40;72.34;96069.41;5047235;28;20055;-71
2023/10/29 06:25:06;;;;;;;0.20;0.20;;;;;;;10.40;72.17;96073.91;5049447;28;20568;-70
2023/10/29 06:27:35;;;;;;;0.20;0.20;;;;;;;10.37;72.36;96082.41;5048298;28;20045;-70
2023/10/29 06:30:04;;;;;;;0.22;0.22;;;;;;;10.35;72.24;96082.63;5048280;28;20040;-70
2023/10/29 06:32:31;;;;;;;0.50;0.50;;;;;;;10.40;71.68;96101.41;5043068;28;20046;-71
2023/10/29 06:34:59;;;;;;;0.20;0.20;;;;;;;10.46;71.63;96107.69;5040170;28;20051;-71
2023/10/29 06:37:27;;;;;;;0.20;0.20;;;;;;;10.50;71.11;96106.97;5046679;28;20036;-71
2023/10/29 06:39:55;;;;;;;0.20;0.20;;;;;;;10.56;71.00;96095.41;5031871;28;20049;-70
2023/10/29 06:42:24;;;;;;;0.30;0.30;;;;;;;10.60;70.57;96106.41;5047589;28;20037;-70
2023/10/29 06:44:52;;;;;;;0.20;0.20;;;;;;;10.62;70.57;96112.31;5034975;28;20041;-70
2023/10/29 06:47:19;;;;;;;0.30;0.30;;;;;;;10.65;70.51;96114.53;5040613;28;20156;-70
2023/10/29 06:49:47;;;;;;;0.30;0.30;;;;;;;10.68;70.35;96115.94;5042283;28;20052;-70
2023/10/29 06:52:15;;;;;;;0.30;0.30;;;;;;;10.68;70.31;96118.63;5042846;28;20053;-74
2023/10/29 06:54:42;;;;;;;0.35;0.35;;;;;;;10.76;70.25;96118.25;5042012;28;20045;-73
2023/10/29 06:57:10;;;;;;;0.25;0.25;;;;;;;10.71;70.28;96110.94;5028615;28;20041;-72
2023/10/29 06:59:39;;;;;;;0.30;0.30;;;;;;;10.71;69.94;96118.13;5044350;28;20063;-71
2023/10/29 07:02:07;;;;;;;0.30;0.30;;;;;;;10.77;69.78;96119.88;5046867;28;20130;-71
2023/10/29 07:04:34;;;;;;;0.40;0.40;;;;;;;10.76;69.94;96118.25;5043135;28;20056;-71
2023/10/29 07:07:02;;;;;;;0.60;0.60;;;;;;;10.80;69.60;96103.38;5046611;28;20133;-71
2023/10/29 07:09:30;;;;;;;0.30;0.30;;;;;;;10.78;70.11;96103.66;5051746;28;20049;-72
2023/10/29 07:11:58;;;;;;;0.35;0.35;;;;;;;10.79;70.16;96112.47;5035173;28;20045;-71
2023/10/29 07:14:25;;;;;;;0.20;0.20;;;;;;;10.83;70.04;96121.63;5044165;28;20069;-71
2023/10/29 07:16:54;;;;;;;0.30;0.30;;;;;;;10.84;69.80;96117.91;5040707;28;20041;-72
2023/10/29 07:19:22;;;;;;;0.30;0.30;;;;;;;10.84;70.01;96116.06;5044673;28;20048;-71
2023/10/29 07:21:50;;;;;;;0.40;0.40;;;;;;;10.87;69.94;96118.25;5042388;28;20057;-72
2023/10/29 07:24:17;;;;;;;0.22;0.22;;;;;;;10.96;69.14;96119.53;5039272;28;20052;-72
2023/10/29 07:26:45;;;;;;;0.20;0.20;;;;;;;10.98;69.46;96119.31;5047722;28;20037;-74
2023/10/29 07:29:13;;;;;;;0.30;0.30;;;;;;;11.06;69.19;96128.81;5042111;28;20489;-72
2023/10/29 07:31:41;;;;;;;0.22;0.22;;;;;;;11.12;69.15;96130.53;5045157;28;20440;-71
2023/10/29 07:34:10;;;;;;;0.20;0.20;;;;;;;11.19;68.32;96128.56;5048514;28;20044;-73
2023/10/29 07:36:38;;;;;;;0.28;0.28;;;;;;;11.26;68.36;96129.25;5052440;28;20049;-71
2023/10/29 07:39:06;;;;;;;0.30;0.30;;;;;;;11.34;67.45;96123.53;5051553;28;20508;-71
2023/10/29 07:41:33;;;;;;;0.30;0.30;;;;;;;11.45;67.10;96129.91;5050814;28;20500;-71
2023/10/29 07:44:01;;;;;;;0.30;0.30;;;;;;;11.49;67.46;96120.38;5043808;28;20052;-71
2023/10/29 07:46:29;;;;;;;0.40;0.40;;;;;;;11.53;66.58;96142.88;5045435;28;20052;-73
2023/10/29 07:48:57;;;;;;;0.30;0.30;;;;;;;11.59;66.85;96136.59;5026976;28;20057;-72
2023/10/29 07:51:26;;;;;;;0.20;0.20;;;;;;;11.62;66.32;96136.13;5043420;28;20049;-72
2023/10/29 07:53:54;;;;;;;0.20;0.20;;;;;;;11.66;66.40;96131.94;5047734;28;20115;-72
2023/10/29 07:56:24;;;;;;;0.30;0.30;;;;;;;11.72;66.24;96147.03;5049533;28;20116;-73
2023/10/29 07:58:52;;;;;;;0.30;0.30;;;;;;;11.73;66.17;96157.47;5048518;28;20047;-73
2023/10/29 08:01:20;;;;;;;0.20;0.20;;;;;;;11.74;65.96;96161.75;5047523;28;20041;-73
2023/10/29 08:03:50;;;;;;;0.20;0.20;;;;;;;11.77;65.98;96181.91;5047997;28;20090;-74
2023/10/29 08:06:18;;;;;;;0.20;0.20;;;;;;;11.80;65.94;96183.28;5051516;28;20049;-72
2023/10/29 08:08:47;;;;;;;0.30;0.30;;;;;;;11.85;66.26;96188.72;5052643;28;20037;-72
2023/10/29 08:11:18;;;;;;;0.20;0.20;;;;;;;11.94;64.56;96181.97;5045702;28;20076;-72
2023/10/29 08:13:46;;;;;;;0.30;0.30;;;;;;;12.01;64.48;96188.81;5049799;28;20091;-72
2023/10/29 08:16:14;;;;;;;0.20;0.20;;;;;;;12.03;64.34;96169.84;5048747;28;20041;-72
2023/10/29 08:18:42;;;;;;;0.22;0.22;;;;;;;12.09;64.50;96167.03;5028203;28;20059;-72
2023/10/29 08:21:09;;;;;;;0.20;0.20;;;;;;;12.11;64.71;96154.22;5049696;28;20067;-72
2023/10/29 08:23:37;;;;;;;0.20;0.20;;;;;;;12.16;64.57;96155.34;5048871;28;20117;-72
2023/10/29 08:26:06;;;;;;;0.20;0.20;;;;;;;12.17;64.55;96152.44;5047478;28;20397;-72
2023/10/29 08:28:36;;;;;;;0.20;0.20;;;;;;;12.19;64.16;96154.88;5054549;28;20365;-72
2023/10/29 08:31:04;;;;;;;0.30;0.30;;;;;;;12.25;63.94;96168.09;5046542;28;20128;-72
2023/10/29 08:33:32;;;;;;;0.30;0.30;;;;;;;12.37;64.31;96165.38;5051194;28;20099;-72
2023/10/29 08:36:00;;;;;;;0.30;0.30;;;;;;;12.46;63.46;96154.03;5042562;28;20513;-72
2023/10/29 08:38:27;;;;;;;0.20;0.20;;;;;;;12.52;63.01;96135.38;5048299;28;20060;-72
2023/10/29 08:40:56;;;;;;;0.30;0.30;;;;;;;12.60;63.36;96165.22;5049142;28;20051;-72
2023/10/29 08:43:25;;;;;;;0.03;0.03;;;;;;;12.68;62.50;96172.84;5051423;28;20147;-72
2023/10/29 08:45:54;;;;;;;0.45;0.45;;;;;;;12.82;60.84;96189.41;5049326;28;20420;-72
2023/10/29 08:48:22;;;;;;;0.30;0.30;;;;;;;12.88;60.94;96188.44;5053107;28;20120;-72
2023/10/29 08:50:53;;;;;;;0.32;0.32;;;;;;;12.93;60.19;96195.75;5046503;28;20060;-73
2023/10/29 08:53:20;;;;;;;0.50;0.30;;;;;;;12.97;60.43;96191.53;5047558;28;20064;-72
2023/10/29 08:55:48;;;;;;;0.10;0.10;;;;;;;12.98;60.15;96188.59;5047453;28;20037;-73
2023/10/29 08:58:16;;;;;;;0.25;0.25;;;;;;;13.00;60.61;96207.09;5052693;28;20033;-72
2023/10/29 09:00:45;;;;;;;0.30;0.30;;;;;;;12.98;60.80;96214.59;5044292;28;20047;-72
2023/10/29 09:03:14;;;;;;;0.30;0.30;;;;;;;13.00;60.60;96217.81;5049361;28;20125;-72
2023/10/29 09:05:43;;;;;;;0.20;0.20;;;;;;;13.02;60.29;96232.59;5043616;28;20045;-74
2023/10/29 09:08:11;;;;;;;0.20;0.20;;;;;;;13.06;59.44;96228.38;5054679;28;20598;-72
2023/10/29 09:10:42;;;;;;;0.20;0.20;;;;;;;13.03;59.35;96220.81;5052464;28;20065;-71
2023/10/29 09:13:11;;;;;;;0.22;0.22;;;;;;;13.00;60.12;96232.00;5060183;28;20052;-72
2023/10/29 09:15:38;;;;;;;0.20;0.20;;;;;;;12.99;60.45;96249.13;5038209;28;20475;-71
2023/10/29 09:18:07;;;;;;;0.20;0.20;;;;;;;12.95;60.26;96255.25;5032601;28;20504;-72
2023/10/29 09:20:38;;;;;;;0.30;0.30;;;;;;;12.97;61.32;96250.47;5050599;28;20045;-71
2023/10/29 09:23:06;;;;;;;0.30;0.30;;;;;;;12.90;62.24;96257.81;5046130;28;20064;-71
2023/10/29 09:25:33;;;;;;;0.28;0.20;;;;;;;12.82;62.74;96253.69;5047271;28;20040;-72
2023/10/29 09:28:04;;;;;;;0.35;0.35;;;;;;;12.75;63.45;96266.41;5042441;28;20040;-72
2023/10/29 09:30:32;;;;;;;0.20;0.20;;;;;;;12.73;64.89;96271.19;5048599;28;20048;-72
2023/10/29 09:33:00;;;;;;;0.30;0.30;;;;;;;12.74;65.49;96267.47;5043056;28;20041;-72
2023/10/29 09:35:30;;;;;;;0.40;0.25;;;;;;;12.75;65.49;96264.56;5042946;28;20564;-72
2023/10/29 09:37:58;;;;;;;0.30;0.30;;;;;;;12.73;64.90;96261.31;5041843;28;20038;-72
2023/10/29 09:40:26;;;;;;;0.30;0.30;;;;;;;12.72;65.11;96259.69;5046579;28;20125;-72
2023/10/29 09:42:55;;;;;;;0.20;0.20;;;;;;;12.76;64.52;96260.00;5039346;28;20050;-72
2023/10/29 09:45:25;;;;;;;0.22;0.22;;;;;;;12.75;66.05;96261.88;5049207;28;20063;-72
2023/10/29 09:47:53;;;;;;;0.22;0.22;;;;;;;12.77;65.71;96261.63;5044814;28;20041;-71
2023/10/29 09:50:22;;;;;;;0.28;0.28;;;;;;;12.80;65.37;96259.28;5050809;28;20100;-72
2023/10/29 09:52:51;;;;;;;0.20;0.20;;;;;;;12.85;65.72;96269.28;5055341;28;20059;-71
2023/10/29 09:55:20;;;;;;;0.25;0.25;;;;;;;12.88;64.31;96264.22;5048587;28;20044;-71
2023/10/29 09:57:48;;;;;;;0.32;0.32;;;;;;;12.91;64.34;96270.16;5052849;28;20037;-71
2023/10/29 10:00:16;;;;;;;0.35;0.35;;;;;;;12.93;65.03;96266.19;5047768;28;20037;-71
2023/10/29 10:02:51;;;;;;;0.38;0.38;;;;;;;12.96;63.91;96264.91;5050802;28;20061;-71
2023/10/29 10:05:20;;;;;;;0.20;0.20;;;;;;;12.97;64.00;96264.66;5049608;28;20153;-72
2023/10/29 10:07:47;;;;;;;0.30;0.30;;;;;;;13.02;63.17;96263.94;5049980;28;20064;-72
2023/10/29 10:10:16;;;;;;;0.32;0.32;;;;;;;13.08;62.65;96254.94;5048355;28;20052;-71
2023/10/29 10:12:46;;;;;;;0.20;0.20;;;;;;;13.14;62.29;96246.75;5049822;28;20051;-72
2023/10/29 10:15:15;;;;;;;0.28;0.28;;;;;;;13.22;62.17;96245.53;5046948;28;20041;-71
2023/10/29 10:17:48;;;;;;;0.10;0.10;;;;;;;13.30;61.54;96242.44;5043988;28;20033;-72
2023/10/29 10:20:17;;;;;;;0.20;0.20;;;;;;;13.37;60.68;96251.13;5046066;28;20045;-71
2023/10/29 10:22:44;;;;;;;0.32;0.32;;;;;;;13.43;61.15;96246.66;5025017;28;20068;-72
2023/10/29 10:25:21;;;;;;;0.22;0.22;;;;;;;13.48;61.24;96241.38;5048410;28;20044;-71
2023/10/29 10:27:50;;;;;;;0.22;0.22;;;;;;;13.50;60.99;96215.91;5044506;28;20449;-71
2023/10/29 10:30:24;;;;;;;0.30;0.30;;;;;;;13.51;60.46;96233.63;5049770;28;20496;-72
2023/10/29 10:32:52;;;;;;;0.32;0.32;;;;;;;13.53;60.87;96236.88;5047475;28;20079;-71
2023/10/29 10:35:20;;;;;;;0.10;0.10;;;;;;;13.57;60.99;96219.25;5042840;28;20132;-74
2023/10/29 10:37:55;;;;;;;0.43;0.43;;;;;;;13.72;60.62;96220.50;5047353;28;20444;-71
2023/10/29 10:40:26;;;;;;;0.40;0.40;;;;;;;13.91;59.60;96205.75;5038702;28;20123;-73
2023/10/29 10:42:55;;;;;;;0.13;0.13;;;;;;;14.11;59.79;96224.78;5042607;28;20049;-72
2023/10/29 10:45:26;;;;;;;0.28;0.28;;;;;;;14.31;59.39;96219.63;5050170;28;20112;-72
2023/10/29 10:47:58;;;;;;;0.10;0.10;;;;;;;14.31;58.24;96195.47;5040340;28;20099;-71
2023/10/29 10:50:26;;;;;;;0.22;0.22;;;;;;;14.42;58.90;96209.03;5044720;28;20045;-71
2023/10/29 10:52:54;;;;;;;0.20;0.20;;;;;;;14.43;57.52;96183.81;5037768;28;20041;-72
2023/10/29 10:55:23;;;;;;;0.63;0.63;;;;;;;14.46;58.07;96194.03;5044108;28;20467;-72
2023/10/29 10:58:13;;;;;;;0.28;0.28;;;;;;;14.63;57.90;96208.16;5049279;28;20045;-72
2023/10/29 11:00:41;;;;;;;0.25;0.25;;;;;;;14.69;57.88;96193.72;5050262;28;20087;-72
2023/10/29 11:03:09;;;;;;;0.22;0.22;;;;;;;14.72;58.33;96190.53;5046169;28;20514;-71
2023/10/29 11:05:57;;;;;;;0.30;0.30;;;;;;;14.82;57.53;96195.97;5041262;28;20045;-72
2023/10/29 11:08:25;;;;;;;0.30;0.30;;;;;;;14.90;57.44;96194.69;5042752;28;20041;-72
2023/10/29 11:10:54;;;;;;;0.20;0.20;;;;;;;14.92;57.62;96193.38;5045238;28;20445;-71
2023/10/29 11:13:22;;;;;;;0.10;0.10;;;;;;;15.03;57.43;96195.09;5040631;28;20072;-72
2023/10/29 11:15:50;;;;;;;0.20;0.20;;;;;;;15.12;57.15;96181.97;5040038;28;20052;-72
2023/10/29 11:18:27;;;;;;;0.28;0.28;;;;;;;15.16;57.00;96193.81;5040947;28;20037;-72
2023/10/29 11:20:56;;;;;;;0.20;0.20;;;;;;;15.11;57.00;96185.72;5038243;28;20049;-72
2023/10/29 11:23:25;;;;;;;0.20;0.20;;;;;;;15.18;57.39;96191.69;5043087;28;20041;-71
2023/10/29 11:26:21;;;;;;;0.30;0.30;;;;;;;15.29;57.70;96182.63;5039540;28;20056;-72
2023/10/29 11:28:51;;;;;;;0.20;0.20;;;;;;;15.32;57.75;96189.38;5047178;28;20095;-71
2023/10/29 11:31:20;;;;;;;0.30;0.30;;;;;;;15.38;57.62;96191.81;5038516;28;20128;-72
2023/10/29 11:33:49;;;;;;;0.30;0.30;;;;;;;15.36;57.83;96188.59;5043559;28;20087;-71
2023/10/29 11:36:29;;;;;;;0.20;0.20;;;;;;;15.25;58.61;96189.59;5042328;28;20045;-73
2023/10/29 11:39:31;;;;;;;0.20;0.20;;;;;;;15.19;59.08;96200.56;5036940;28;20112;-72
2023/10/29 11:42:00;;;;;;;0.20;0.20;;;;;;;15.10;59.62;96202.09;5043590;28;20045;-73